Aviation Digital Data Service (ADDS)

Output produced by METARs form (0528 UTC 31 January 2015)
found at http://www.aviationweather.gov/adds/metars/
 
KDFW 310300Z 3103/0106 10005KT P6SM SCT120 BKN200 
     FM311200 11009KT P6SM OVC090 
     FM312100 12012KT P6SM BKN030 OVC080 
     FM010000 13013KT P6SM -RA BKN013 OVC025 
     FM010300 14012KT 4SM SHRA BR OVC008